sensor_id;sensor_type;location;lat;lon;timestamp;pressure;altitude;pressure_sealevel;temperature;humidity
76940;BME280;65885;55.848;35.916;2023-04-23T00:00:58;99079.41;;;9.04;40.60
76940;BME280;65885;55.848;35.916;2023-04-23T00:03:29;99078.78;;;9.20;40.35
76940;BME280;65885;55.848;35.916;2023-04-23T00:05:58;99079.91;;;9.34;38.83
76940;BME280;65885;55.848;35.916;2023-04-23T00:08:25;99075.78;;;9.49;38.86
76940;BME280;65885;55.848;35.916;2023-04-23T00:10:53;99081.34;;;9.62;38.74
76940;BME280;65885;55.848;35.916;2023-04-23T00:13:21;99078.16;;;9.74;38.92
76940;BME280;65885;55.848;35.916;2023-04-23T00:15:49;99071.63;;;9.84;38.76
76940;BME280;65885;55.848;35.916;2023-04-23T00:18:17;99076.38;;;9.95;38.69
76940;BME280;65885;55.848;35.916;2023-04-23T00:20:46;99074.13;;;10.06;39.50
76940;BME280;65885;55.848;35.916;2023-04-23T00:23:14;99082.41;;;10.16;39.11
76940;BME280;65885;55.848;35.916;2023-04-23T00:25:41;99079.41;;;10.25;38.91
76940;BME280;65885;55.848;35.916;2023-04-23T00:28:09;99089.47;;;10.34;38.92
76940;BME280;65885;55.848;35.916;2023-04-23T00:30:37;99093.50;;;10.41;38.44
76940;BME280;65885;55.848;35.916;2023-04-23T00:33:04;99087.91;;;10.49;38.27
76940;BME280;65885;55.848;35.916;2023-04-23T00:35:32;99099.81;;;10.56;38.51
76940;BME280;65885;55.848;35.916;2023-04-23T00:38:01;99095.97;;;10.63;38.34
76940;BME280;65885;55.848;35.916;2023-04-23T00:40:28;99097.38;;;10.70;38.28
76940;BME280;65885;55.848;35.916;2023-04-23T00:42:56;99097.94;;;10.77;38.14
76940;BME280;65885;55.848;35.916;2023-04-23T00:45:24;99098.63;;;10.80;38.21
76940;BME280;65885;55.848;35.916;2023-04-23T00:47:52;99100.66;;;10.75;38.37
76940;BME280;65885;55.848;35.916;2023-04-23T00:50:20;99101.38;;;10.60;38.48
76940;BME280;65885;55.848;35.916;2023-04-23T00:52:47;99104.91;;;10.40;39.38
76940;BME280;65885;55.848;35.916;2023-04-23T00:55:16;99101.47;;;10.19;40.26
76940;BME280;65885;55.848;35.916;2023-04-23T00:57:47;99099.94;;;9.95;39.79
76940;BME280;65885;55.848;35.916;2023-04-23T01:00:15;99109.56;;;9.76;39.94
76940;BME280;65885;55.848;35.916;2023-04-23T01:02:43;99105.94;;;9.58;40.03
76940;BME280;65885;55.848;35.916;2023-04-23T01:05:13;99103.19;;;9.40;42.51
76940;BME280;65885;55.848;35.916;2023-04-23T01:07:43;99104.75;;;9.24;42.57
76940;BME280;65885;55.848;35.916;2023-04-23T01:10:11;99103.63;;;9.09;43.35
76940;BME280;65885;55.848;35.916;2023-04-23T01:12:40;99107.66;;;8.96;43.93
76940;BME280;65885;55.848;35.916;2023-04-23T01:15:08;99113.34;;;8.84;43.16
76940;BME280;65885;55.848;35.916;2023-04-23T01:17:36;99107.66;;;8.74;41.30
76940;BME280;65885;55.848;35.916;2023-04-23T01:20:04;99114.63;;;8.74;41.99
76940;BME280;65885;55.848;35.916;2023-04-23T01:22:35;99113.25;;;8.87;41.76
76940;BME280;65885;55.848;35.916;2023-04-23T01:25:03;99116.78;;;9.08;41.86
76940;BME280;65885;55.848;35.916;2023-04-23T01:27:31;99105.34;;;9.31;42.79
76940;BME280;65885;55.848;35.916;2023-04-23T01:30:01;99120.22;;;9.51;42.34
76940;BME280;65885;55.848;35.916;2023-04-23T01:32:30;99114.19;;;9.69;41.08
76940;BME280;65885;55.848;35.916;2023-04-23T01:34:58;99105.53;;;9.87;40.60
76940;BME280;65885;55.848;35.916;2023-04-23T01:37:26;99111.78;;;10.04;41.01
76940;BME280;65885;55.848;35.916;2023-04-23T01:39:56;99107.34;;;10.06;39.87
76940;BME280;65885;55.848;35.916;2023-04-23T01:42:24;99113.81;;;9.97;39.54
76940;BME280;65885;55.848;35.916;2023-04-23T01:44:51;99098.75;;;9.83;40.45
76940;BME280;65885;55.848;35.916;2023-04-23T01:47:20;99102.06;;;9.66;42.14
76940;BME280;65885;55.848;35.916;2023-04-23T01:49:47;99107.25;;;9.48;41.96
76940;BME280;65885;55.848;35.916;2023-04-23T01:52:15;99113.13;;;9.32;42.37
76940;BME280;65885;55.848;35.916;2023-04-23T01:54:43;99112.00;;;9.17;42.70
76940;BME280;65885;55.848;35.916;2023-04-23T01:57:12;99113.41;;;9.04;43.61
76940;BME280;65885;55.848;35.916;2023-04-23T01:59:39;99111.34;;;8.90;43.33
76940;BME280;65885;55.848;35.916;2023-04-23T02:02:09;99119.56;;;8.81;43.38
76940;BME280;65885;55.848;35.916;2023-04-23T02:04:40;99120.84;;;8.71;43.25
76940;BME280;65885;55.848;35.916;2023-04-23T02:07:10;99116.84;;;8.63;43.86
76940;BME280;65885;55.848;35.916;2023-04-23T02:09:37;99120.53;;;8.57;42.97
76940;BME280;65885;55.848;35.916;2023-04-23T02:12:05;99128.00;;;8.66;43.20
76940;BME280;65885;55.848;35.916;2023-04-23T02:14:35;99124.56;;;8.87;43.83
76940;BME280;65885;55.848;35.916;2023-04-23T02:17:03;99122.72;;;9.11;44.48
76940;BME280;65885;55.848;35.916;2023-04-23T02:19:31;99127.78;;;9.36;43.52
76940;BME280;65885;55.848;35.916;2023-04-23T02:21:59;99120.88;;;9.56;43.27
76940;BME280;65885;55.848;35.916;2023-04-23T02:24:27;99127.81;;;9.77;43.39
76940;BME280;65885;55.848;35.916;2023-04-23T02:26:55;99125.28;;;9.94;41.56
76940;BME280;65885;55.848;35.916;2023-04-23T02:29:22;99124.84;;;10.05;40.82
76940;BME280;65885;55.848;35.916;2023-04-23T02:31:51;99122.25;;;10.04;40.68
76940;BME280;65885;55.848;35.916;2023-04-23T02:34:18;99124.53;;;9.92;41.11
76940;BME280;65885;55.848;35.916;2023-04-23T02:36:46;99121.72;;;9.77;42.98
76940;BME280;65885;55.848;35.916;2023-04-23T02:39:13;99125.97;;;9.59;44.27
76940;BME280;65885;55.848;35.916;2023-04-23T02:41:41;99132.84;;;9.41;44.44
76940;BME280;65885;55.848;35.916;2023-04-23T02:44:08;99137.78;;;9.27;45.18
76940;BME280;65885;55.848;35.916;2023-04-23T02:46:36;99139.19;;;9.13;44.66
76940;BME280;65885;55.848;35.916;2023-04-23T02:49:05;99143.16;;;9.02;44.87
76940;BME280;65885;55.848;35.916;2023-04-23T02:51:32;99140.13;;;8.90;43.76
76940;BME280;65885;55.848;35.916;2023-04-23T02:54:00;99139.56;;;8.82;46.86
76940;BME280;65885;55.848;35.916;2023-04-23T02:56:28;99146.00;;;8.74;47.48
76940;BME280;65885;55.848;35.916;2023-04-23T02:58:56;99138.22;;;8.72;45.50
76940;BME280;65885;55.848;35.916;2023-04-23T03:01:23;99156.78;;;8.88;45.80
76940;BME280;65885;55.848;35.916;2023-04-23T03:03:51;99150.41;;;9.17;46.30
76940;BME280;65885;55.848;35.916;2023-04-23T03:06:20;99158.75;;;9.47;44.89
76940;BME280;65885;55.848;35.916;2023-04-23T03:08:47;99151.50;;;9.74;43.91
76940;BME280;65885;55.848;35.916;2023-04-23T03:11:14;99159.94;;;10.01;43.39
76940;BME280;65885;55.848;35.916;2023-04-23T03:13:42;99154.50;;;10.26;43.69
76940;BME280;65885;55.848;35.916;2023-04-23T03:16:09;99168.41;;;10.47;44.79
76940;BME280;65885;55.848;35.916;2023-04-23T03:18:37;99160.03;;;10.57;44.36
76940;BME280;65885;55.848;35.916;2023-04-23T03:21:05;99161.88;;;10.55;42.97
76940;BME280;65885;55.848;35.916;2023-04-23T03:23:35;99164.00;;;10.47;43.43
76940;BME280;65885;55.848;35.916;2023-04-23T03:26:02;99165.34;;;10.37;43.12
76940;BME280;65885;55.848;35.916;2023-04-23T03:28:30;99165.06;;;10.24;44.71
76940;BME280;65885;55.848;35.916;2023-04-23T03:30:57;99165.50;;;10.14;45.08
76940;BME280;65885;55.848;35.916;2023-04-23T03:33:25;99166.81;;;10.04;46.30
76940;BME280;65885;55.848;35.916;2023-04-23T03:35:52;99167.13;;;9.96;47.44
76940;BME280;65885;55.848;35.916;2023-04-23T03:38:19;99170.94;;;9.89;47.80
76940;BME280;65885;55.848;35.916;2023-04-23T03:40:48;99175.53;;;9.84;46.47
76940;BME280;65885;55.848;35.916;2023-04-23T03:43:16;99175.59;;;9.82;45.77
76940;BME280;65885;55.848;35.916;2023-04-23T03:45:43;99178.22;;;9.82;45.76
76940;BME280;65885;55.848;35.916;2023-04-23T03:48:11;99182.56;;;9.83;46.28
76940;BME280;65885;55.848;35.916;2023-04-23T03:50:38;99177.16;;;9.86;47.60
76940;BME280;65885;55.848;35.916;2023-04-23T03:53:06;99184.00;;;9.90;48.92
76940;BME280;65885;55.848;35.916;2023-04-23T03:55:34;99186.47;;;9.93;48.00
76940;BME280;65885;55.848;35.916;2023-04-23T03:58:03;99190.06;;;10.11;46.86
76940;BME280;65885;55.848;35.916;2023-04-23T04:00:30;99192.19;;;10.42;46.48
76940;BME280;65885;55.848;35.916;2023-04-23T04:02:58;99186.09;;;10.81;46.69
76940;BME280;65885;55.848;35.916;2023-04-23T04:05:26;99185.25;;;11.17;45.89
76940;BME280;65885;55.848;35.916;2023-04-23T04:07:54;99189.63;;;11.52;45.72
76940;BME280;65885;55.848;35.916;2023-04-23T04:10:22;99182.97;;;11.81;45.16
76940;BME280;65885;55.848;35.916;2023-04-23T04:12:49;99196.47;;;12.08;44.09
76940;BME280;65885;55.848;35.916;2023-04-23T04:15:18;99192.13;;;12.25;44.60
76940;BME280;65885;55.848;35.916;2023-04-23T04:17:46;99199.09;;;12.26;43.81
76940;BME280;65885;55.848;35.916;2023-04-23T04:20:13;99197.53;;;12.21;43.95
76940;BME280;65885;55.848;35.916;2023-04-23T04:22:40;99194.28;;;12.16;45.50
76940;BME280;65885;55.848;35.916;2023-04-23T04:25:08;99187.72;;;12.08;45.95
76940;BME280;65885;55.848;35.916;2023-04-23T04:27:37;99189.91;;;12.00;46.59
76940;BME280;65885;55.848;35.916;2023-04-23T04:30:07;99204.22;;;11.94;47.39
76940;BME280;65885;55.848;35.916;2023-04-23T04:32:36;99208.59;;;11.93;48.25
76940;BME280;65885;55.848;35.916;2023-04-23T04:35:05;99208.59;;;11.93;47.67
76940;BME280;65885;55.848;35.916;2023-04-23T04:37:35;99204.06;;;11.97;47.59
76940;BME280;65885;55.848;35.916;2023-04-23T04:40:02;99210.69;;;12.04;47.98
76940;BME280;65885;55.848;35.916;2023-04-23T04:42:33;99215.47;;;12.13;47.59
76940;BME280;65885;55.848;35.916;2023-04-23T04:45:01;99220.16;;;12.24;48.20
76940;BME280;65885;55.848;35.916;2023-04-23T04:47:30;99215.41;;;12.32;48.41
76940;BME280;65885;55.848;35.916;2023-04-23T04:50:00;99221.00;;;12.42;47.98
76940;BME280;65885;55.848;35.916;2023-04-23T04:52:29;99220.59;;;12.49;47.79
76940;BME280;65885;55.848;35.916;2023-04-23T04:54:56;99224.53;;;12.58;47.67
76940;BME280;65885;55.848;35.916;2023-04-23T04:57:24;99224.97;;;12.66;48.07
76940;BME280;65885;55.848;35.916;2023-04-23T04:59:51;99226.25;;;12.75;47.33
76940;BME280;65885;55.848;35.916;2023-04-23T05:02:20;99221.38;;;12.85;47.27
76940;BME280;65885;55.848;35.916;2023-04-23T05:04:48;99223.41;;;12.95;47.29
76940;BME280;65885;55.848;35.916;2023-04-23T05:07:16;99226.38;;;13.05;47.04
76940;BME280;65885;55.848;35.916;2023-04-23T05:09:44;99224.00;;;13.16;46.62
76940;BME280;65885;55.848;35.916;2023-04-23T05:12:12;99229.97;;;13.36;46.50
76940;BME280;65885;55.848;35.916;2023-04-23T05:14:39;99237.81;;;13.67;46.28
76940;BME280;65885;55.848;35.916;2023-04-23T05:17:07;99239.84;;;14.08;45.66
76940;BME280;65885;55.848;35.916;2023-04-23T05:19:34;99232.88;;;14.51;45.01
76940;BME280;65885;55.848;35.916;2023-04-23T05:22:02;99235.59;;;14.92;44.20
76940;BME280;65885;55.848;35.916;2023-04-23T05:24:31;99235.81;;;15.31;43.59
76940;BME280;65885;55.848;35.916;2023-04-23T05:26:58;99234.78;;;15.60;43.02
76940;BME280;65885;55.848;35.916;2023-04-23T05:29:26;99240.03;;;15.74;42.79
76940;BME280;65885;55.848;35.916;2023-04-23T05:31:53;99241.22;;;15.83;42.56
76940;BME280;65885;55.848;35.916;2023-04-23T05:34:21;99239.13;;;15.88;42.54
76940;BME280;65885;55.848;35.916;2023-04-23T05:36:48;99249.50;;;15.91;42.50
76940;BME280;65885;55.848;35.916;2023-04-23T05:39:15;99243.91;;;15.96;42.59
76940;BME280;65885;55.848;35.916;2023-04-23T05:41:44;99247.91;;;16.01;42.38
76940;BME280;65885;55.848;35.916;2023-04-23T05:44:11;99251.84;;;16.08;42.55
76940;BME280;65885;55.848;35.916;2023-04-23T05:46:39;99256.56;;;16.18;42.44
76940;BME280;65885;55.848;35.916;2023-04-23T05:49:06;99250.63;;;16.27;42.36
76940;BME280;65885;55.848;35.916;2023-04-23T05:51:34;99250.84;;;16.36;42.07
76940;BME280;65885;55.848;35.916;2023-04-23T05:54:02;99254.47;;;16.48;41.93
76940;BME280;65885;55.848;35.916;2023-04-23T05:56:29;99256.34;;;16.59;42.06
76940;BME280;65885;55.848;35.916;2023-04-23T05:58:58;99265.06;;;16.74;41.48
76940;BME280;65885;55.848;35.916;2023-04-23T06:01:25;99256.16;;;16.87;40.97
76940;BME280;65885;55.848;35.916;2023-04-23T06:03:53;99259.72;;;16.99;40.61
76940;BME280;65885;55.848;35.916;2023-04-23T06:06:20;99266.94;;;17.10;40.49
76940;BME280;65885;55.848;35.916;2023-04-23T06:08:48;99268.81;;;17.20;40.22
76940;BME280;65885;55.848;35.916;2023-04-23T06:11:16;99264.56;;;17.31;40.22
76940;BME280;65885;55.848;35.916;2023-04-23T06:13:43;99267.50;;;17.39;39.87
76940;BME280;65885;55.848;35.916;2023-04-23T06:16:12;99265.03;;;17.48;39.90
76940;BME280;65885;55.848;35.916;2023-04-23T06:18:39;99262.66;;;17.57;38.95
76940;BME280;65885;55.848;35.916;2023-04-23T06:21:06;99270.78;;;17.66;39.72
76940;BME280;65885;55.848;35.916;2023-04-23T06:23:34;99257.63;;;17.78;40.08
76940;BME280;65885;55.848;35.916;2023-04-23T06:26:02;99261.91;;;17.91;39.69
76940;BME280;65885;55.848;35.916;2023-04-23T06:28:30;99276.78;;;18.05;39.13
76940;BME280;65885;55.848;35.916;2023-04-23T06:30:58;99274.06;;;18.18;38.52
76940;BME280;65885;55.848;35.916;2023-04-23T06:33:27;99278.59;;;18.40;38.31
76940;BME280;65885;55.848;35.916;2023-04-23T06:35:55;99269.69;;;18.63;38.18
76940;BME280;65885;55.848;35.916;2023-04-23T06:38:22;99271.56;;;18.85;37.78
76940;BME280;65885;55.848;35.916;2023-04-23T06:40:50;99264.06;;;19.01;36.76
76940;BME280;65885;55.848;35.916;2023-04-23T06:43:17;99271.94;;;19.14;36.01
76940;BME280;65885;55.848;35.916;2023-04-23T06:45:45;99279.16;;;19.23;35.97
76940;BME280;65885;55.848;35.916;2023-04-23T06:48:12;99283.75;;;19.32;35.76
76940;BME280;65885;55.848;35.916;2023-04-23T06:50:42;99276.00;;;19.40;35.56
76940;BME280;65885;55.848;35.916;2023-04-23T06:53:09;99278.16;;;19.47;35.00
76940;BME280;65885;55.848;35.916;2023-04-23T06:55:37;99288.31;;;19.53;35.13
76940;BME280;65885;55.848;35.916;2023-04-23T06:58:05;99283.50;;;19.58;34.44
76940;BME280;65885;55.848;35.916;2023-04-23T07:00:32;99284.94;;;19.62;34.40
76940;BME280;65885;55.848;35.916;2023-04-23T07:03:00;99282.88;;;19.65;34.71
76940;BME280;65885;55.848;35.916;2023-04-23T07:05:27;99282.34;;;19.72;33.84
76940;BME280;65885;55.848;35.916;2023-04-23T07:07:56;99288.03;;;19.78;33.86
76940;BME280;65885;55.848;35.916;2023-04-23T07:10:24;99289.47;;;19.82;33.43
76940;BME280;65885;55.848;35.916;2023-04-23T07:12:51;99288.13;;;19.88;33.46
76940;BME280;65885;55.848;35.916;2023-04-23T07:15:19;99292.09;;;19.93;32.84
76940;BME280;65885;55.848;35.916;2023-04-23T07:17:46;99285.56;;;19.98;32.43
76940;BME280;65885;55.848;35.916;2023-04-23T07:20:13;99290.75;;;19.99;31.90
76940;BME280;65885;55.848;35.916;2023-04-23T07:22:41;99289.53;;;20.03;32.17
76940;BME280;65885;55.848;35.916;2023-04-23T07:25:11;99290.59;;;20.12;32.00
76940;BME280;65885;55.848;35.916;2023-04-23T07:27:38;99292.47;;;20.21;32.15
76940;BME280;65885;55.848;35.916;2023-04-23T07:30:07;99294.34;;;20.30;31.81
76940;BME280;65885;55.848;35.916;2023-04-23T07:32:35;99292.72;;;20.39;31.23
76940;BME280;65885;55.848;35.916;2023-04-23T07:35:04;99290.28;;;20.47;31.28
76940;BME280;65885;55.848;35.916;2023-04-23T07:37:31;99296.69;;;20.56;31.03
76940;BME280;65885;55.848;35.916;2023-04-23T07:39:59;99286.06;;;20.65;30.63
76940;BME280;65885;55.848;35.916;2023-04-23T07:42:32;99288.66;;;20.76;30.13
76940;BME280;65885;55.848;35.916;2023-04-23T07:45:01;99295.56;;;20.79;29.95
76940;BME280;65885;55.848;35.916;2023-04-23T07:47:37;99293.31;;;20.84;29.83
76940;BME280;65885;55.848;35.916;2023-04-23T07:50:14;99291.13;;;20.89;29.82
76940;BME280;65885;55.848;35.916;2023-04-23T07:52:43;99286.09;;;20.96;30.03
76940;BME280;65885;55.848;35.916;2023-04-23T07:55:14;99280.78;;;21.05;29.37
76940;BME280;65885;55.848;35.916;2023-04-23T07:57:48;99290.78;;;21.13;28.75
76940;BME280;65885;55.848;35.916;2023-04-23T08:00:18;99279.44;;;21.21;28.81
76940;BME280;65885;55.848;35.916;2023-04-23T08:02:46;99279.41;;;21.32;28.13
76940;BME280;65885;55.848;35.916;2023-04-23T08:05:14;99269.44;;;21.44;28.16
76940;BME280;65885;55.848;35.916;2023-04-23T08:07:42;99276.50;;;21.54;28.19
76940;BME280;65885;55.848;35.916;2023-04-23T08:10:09;99280.47;;;21.70;27.85
76940;BME280;65885;55.848;35.916;2023-04-23T08:12:37;99280.31;;;21.91;27.57
76940;BME280;65885;55.848;35.916;2023-04-23T08:15:07;99280.09;;;22.13;27.27
76940;BME280;65885;55.848;35.916;2023-04-23T08:17:37;99276.69;;;22.40;26.30
76940;BME280;65885;55.848;35.916;2023-04-23T08:20:06;99274.97;;;22.68;25.98
76940;BME280;65885;55.848;35.916;2023-04-23T08:22:34;99274.34;;;22.93;25.53
76940;BME280;65885;55.848;35.916;2023-04-23T08:25:01;99273.97;;;23.16;25.22
76940;BME280;65885;55.848;35.916;2023-04-23T08:27:29;99272.59;;;23.39;24.34
76940;BME280;65885;55.848;35.916;2023-04-23T08:29:57;99265.84;;;23.63;24.43
76940;BME280;65885;55.848;35.916;2023-04-23T08:32:26;99265.88;;;23.80;23.45
76940;BME280;65885;55.848;35.916;2023-04-23T08:34:53;99274.34;;;23.94;22.70
76940;BME280;65885;55.848;35.916;2023-04-23T08:37:21;99265.38;;;24.03;22.78
76940;BME280;65885;55.848;35.916;2023-04-23T08:39:49;99267.22;;;24.02;22.01
76940;BME280;65885;55.848;35.916;2023-04-23T08:42:21;99267.09;;;24.04;22.13
76940;BME280;65885;55.848;35.916;2023-04-23T08:44:50;99269.38;;;23.99;21.78
76940;BME280;65885;55.848;35.916;2023-04-23T08:47:23;99266.56;;;23.83;21.70
76940;BME280;65885;55.848;35.916;2023-04-23T08:49:53;99256.97;;;23.62;21.96
76940;BME280;65885;55.848;35.916;2023-04-23T08:52:22;99259.34;;;23.38;21.78
76940;BME280;65885;55.848;35.916;2023-04-23T08:54:52;99262.69;;;23.12;22.08
76940;BME280;65885;55.848;35.916;2023-04-23T08:57:20;99269.28;;;22.90;22.95
76940;BME280;65885;55.848;35.916;2023-04-23T08:59:48;99269.72;;;22.76;23.29
76940;BME280;65885;55.848;35.916;2023-04-23T09:02:16;99267.66;;;22.60;23.26
76940;BME280;65885;55.848;35.916;2023-04-23T09:04:44;99265.28;;;22.48;23.89
76940;BME280;65885;55.848;35.916;2023-04-23T09:07:15;99270.78;;;22.36;23.76
76940;BME280;65885;55.848;35.916;2023-04-23T09:09:43;99275.16;;;22.28;24.13
76940;BME280;65885;55.848;35.916;2023-04-23T09:12:11;99269.69;;;22.20;24.02
76940;BME280;65885;55.848;35.916;2023-04-23T09:14:38;99269.53;;;22.11;24.21
76940;BME280;65885;55.848;35.916;2023-04-23T09:17:06;99263.88;;;22.05;24.29
76940;BME280;65885;55.848;35.916;2023-04-23T09:19:34;99267.84;;;22.01;24.63
76940;BME280;65885;55.848;35.916;2023-04-23T09:22:04;99259.38;;;22.05;25.03
76940;BME280;65885;55.848;35.916;2023-04-23T09:24:33;99260.97;;;22.18;24.90
76940;BME280;65885;55.848;35.916;2023-04-23T09:27:01;99262.38;;;22.31;24.53
76940;BME280;65885;55.848;35.916;2023-04-23T09:29:30;99257.41;;;22.46;24.96
76940;BME280;65885;55.848;35.916;2023-04-23T09:32:06;99254.84;;;22.64;25.17
76940;BME280;65885;55.848;35.916;2023-04-23T09:34:35;99262.94;;;22.82;24.64
76940;BME280;65885;55.848;35.916;2023-04-23T09:37:04;99258.56;;;23.00;24.40
76940;BME280;65885;55.848;35.916;2023-04-23T09:39:34;99257.06;;;23.15;24.05
76940;BME280;65885;55.848;35.916;2023-04-23T09:42:03;99249.53;;;23.29;23.84
76940;BME280;65885;55.848;35.916;2023-04-23T09:44:33;99257.59;;;23.46;23.96
76940;BME280;65885;55.848;35.916;2023-04-23T09:47:08;99245.09;;;23.65;23.87
76940;BME280;65885;55.848;35.916;2023-04-23T09:49:46;99249.16;;;23.87;24.03
76940;BME280;65885;55.848;35.916;2023-04-23T09:52:14;99248.53;;;24.11;23.30
76940;BME280;65885;55.848;35.916;2023-04-23T09:54:43;99253.44;;;24.33;22.76
76940;BME280;65885;55.848;35.916;2023-04-23T09:57:11;99250.06;;;24.49;21.95
76940;BME280;65885;55.848;35.916;2023-04-23T09:59:39;99251.81;;;24.58;21.92
76940;BME280;65885;55.848;35.916;2023-04-23T10:02:08;99246.91;;;24.53;21.21
76940;BME280;65885;55.848;35.916;2023-04-23T10:04:37;99255.50;;;24.39;21.36
76940;BME280;65885;55.848;35.916;2023-04-23T10:07:05;99248.63;;;24.19;21.64
76940;BME280;65885;55.848;35.916;2023-04-23T10:09:39;99253.31;;;23.99;22.30
76940;BME280;65885;55.848;35.916;2023-04-23T10:12:09;99238.00;;;23.91;22.55
76940;BME280;65885;55.848;35.916;2023-04-23T10:14:37;99244.72;;;23.95;22.56
76940;BME280;65885;55.848;35.916;2023-04-23T10:17:06;99243.06;;;24.12;22.70
76940;BME280;65885;55.848;35.916;2023-04-23T10:19:35;99245.09;;;24.36;22.66
76940;BME280;65885;55.848;35.916;2023-04-23T10:22:08;99236.22;;;24.61;22.28
76940;BME280;65885;55.848;35.916;2023-04-23T10:24:39;99246.06;;;24.79;21.98
76940;BME280;65885;55.848;35.916;2023-04-23T10:27:12;99242.09;;;24.91;22.18
76940;BME280;65885;55.848;35.916;2023-04-23T10:29:41;99236.16;;;25.05;22.30
76940;BME280;65885;55.848;35.916;2023-04-23T10:32:10;99231.38;;;25.25;21.69
76940;BME280;65885;55.848;35.916;2023-04-23T10:34:38;99239.31;;;25.43;21.30
76940;BME280;65885;55.848;35.916;2023-04-23T10:37:06;99238.31;;;25.52;20.98
76940;BME280;65885;55.848;35.916;2023-04-23T10:39:37;99237.19;;;25.55;20.69
76940;BME280;65885;55.848;35.916;2023-04-23T10:42:05;99237.81;;;25.49;20.82
76940;BME280;65885;55.848;35.916;2023-04-23T10:44:36;99234.75;;;25.35;20.46
76940;BME280;65885;55.848;35.916;2023-04-23T10:47:04;99242.13;;;25.25;20.90
76940;BME280;65885;55.848;35.916;2023-04-23T10:49:33;99226.81;;;25.17;20.83
76940;BME280;65885;55.848;35.916;2023-04-23T10:52:03;99231.28;;;25.09;20.72
76940;BME280;65885;55.848;35.916;2023-04-23T10:54:31;99234.63;;;25.03;20.44
76940;BME280;65885;55.848;35.916;2023-04-23T10:57:01;99223.13;;;24.92;20.33
76940;BME280;65885;55.848;35.916;2023-04-23T10:59:30;99224.28;;;24.82;20.34
76940;BME280;65885;55.848;35.916;2023-04-23T11:02:09;99223.56;;;24.72;20.34
76940;BME280;65885;55.848;35.916;2023-04-23T11:04:41;99217.94;;;24.57;20.82
76940;BME280;65885;55.848;35.916;2023-04-23T11:07:11;99216.00;;;24.41;20.37
76940;BME280;65885;55.848;35.916;2023-04-23T11:09:40;99213.84;;;24.27;20.74
76940;BME280;65885;55.848;35.916;2023-04-23T11:12:10;99214.41;;;24.13;20.66
76940;BME280;65885;55.848;35.916;2023-04-23T11:14:45;99208.75;;;23.98;20.60
76940;BME280;65885;55.848;35.916;2023-04-23T11:17:15;99218.34;;;23.83;21.22
76940;BME280;65885;55.848;35.916;2023-04-23T11:20:05;99217.56;;;23.72;21.62
76940;BME280;65885;55.848;35.916;2023-04-23T11:22:35;99209.31;;;23.66;22.23
76940;BME280;65885;55.848;35.916;2023-04-23T11:25:04;99212.06;;;23.74;22.56
76940;BME280;65885;55.848;35.916;2023-04-23T11:27:32;99222.84;;;24.00;22.35
76940;BME280;65885;55.848;35.916;2023-04-23T11:30:00;99213.94;;;24.35;21.85
76940;BME280;65885;55.848;35.916;2023-04-23T11:32:31;99213.34;;;24.75;21.68
76940;BME280;65885;55.848;35.916;2023-04-23T11:35:01;99210.53;;;25.11;21.37
76940;BME280;65885;55.848;35.916;2023-04-23T11:37:30;99211.44;;;25.36;21.56
76940;BME280;65885;55.848;35.916;2023-04-23T11:40:04;99214.81;;;25.54;21.37
76940;BME280;65885;55.848;35.916;2023-04-23T11:42:40;99214.34;;;25.67;20.81
76940;BME280;65885;55.848;35.916;2023-04-23T11:45:14;99197.72;;;25.63;20.20
76940;BME280;65885;55.848;35.916;2023-04-23T11:47:45;99209.63;;;25.53;21.02
76940;BME280;65885;55.848;35.916;2023-04-23T11:50:16;99218.31;;;25.46;20.99
76940;BME280;65885;55.848;35.916;2023-04-23T11:52:44;99215.97;;;25.43;20.92
76940;BME280;65885;55.848;35.916;2023-04-23T11:55:12;99212.78;;;25.40;21.12
76940;BME280;65885;55.848;35.916;2023-04-23T11:57:43;99204.88;;;25.38;21.02
76940;BME280;65885;55.848;35.916;2023-04-23T12:00:13;99203.72;;;25.41;20.76
76940;BME280;65885;55.848;35.916;2023-04-23T12:02:54;99210.63;;;25.60;20.37
76940;BME280;65885;55.848;35.916;2023-04-23T12:05:26;99198.59;;;25.72;20.00
76940;BME280;65885;55.848;35.916;2023-04-23T12:08:04;99190.91;;;25.77;19.62
76940;BME280;65885;55.848;35.916;2023-04-23T12:10:32;99186.69;;;25.91;20.06
76940;BME280;65885;55.848;35.916;2023-04-23T12:13:00;99197.59;;;26.06;19.99
76940;BME280;65885;55.848;35.916;2023-04-23T12:15:28;99189.03;;;26.18;19.70
76940;BME280;65885;55.848;35.916;2023-04-23T12:18:09;99194.91;;;26.30;19.38
76940;BME280;65885;55.848;35.916;2023-04-23T12:20:37;99190.84;;;26.34;19.54
76940;BME280;65885;55.848;35.916;2023-04-23T12:23:05;99195.88;;;26.37;19.45
76940;BME280;65885;55.848;35.916;2023-04-23T12:25:33;99193.19;;;26.37;19.26
76940;BME280;65885;55.848;35.916;2023-04-23T12:28:02;99193.53;;;26.34;19.31
76940;BME280;65885;55.848;35.916;2023-04-23T12:30:31;99184.31;;;26.28;19.40
76940;BME280;65885;55.848;35.916;2023-04-23T12:32:59;99184.66;;;26.25;19.29
76940;BME280;65885;55.848;35.916;2023-04-23T12:35:39;99202.13;;;26.21;19.01
76940;BME280;65885;55.848;35.916;2023-04-23T12:38:07;99183.00;;;26.16;19.01
76940;BME280;65885;55.848;35.916;2023-04-23T12:40:46;99181.97;;;26.17;18.84
76940;BME280;65885;55.848;35.916;2023-04-23T12:43:14;99180.47;;;26.23;19.00
76940;BME280;65885;55.848;35.916;2023-04-23T12:45:41;99183.81;;;26.33;19.03
76940;BME280;65885;55.848;35.916;2023-04-23T12:48:10;99181.78;;;26.43;18.88
76940;BME280;65885;55.848;35.916;2023-04-23T12:50:39;99183.13;;;26.47;19.06
76940;BME280;65885;55.848;35.916;2023-04-23T12:53:07;99179.59;;;26.47;19.06
76940;BME280;65885;55.848;35.916;2023-04-23T12:55:34;99184.16;;;26.46;18.71
76940;BME280;65885;55.848;35.916;2023-04-23T12:58:04;99179.28;;;26.42;18.77
76940;BME280;65885;55.848;35.916;2023-04-23T13:00:32;99178.06;;;26.36;18.82